sensor_id;sensor_type;location;lat;lon;timestamp;P1;durP1;ratioP1;P2;durP2;ratioP2
5343;SDS011;2694;48.950;8.970;2022-08-19T00:00:02;16.20;;;10.30;;
5343;SDS011;2694;48.950;8.970;2022-08-19T00:02:29;15.43;;;10.77;;
5343;SDS011;2694;48.950;8.970;2022-08-19T00:04:56;16.63;;;10.75;;
5343;SDS011;2694;48.950;8.970;2022-08-19T00:07:23;18.10;;;11.35;;
5343;SDS011;2694;48.950;8.970;2022-08-19T00:09:50;17.38;;;10.82;;
5343;SDS011;2694;48.950;8.970;2022-08-19T00:12:16;16.35;;;10.60;;
5343;SDS011;2694;48.950;8.970;2022-08-19T00:14:43;19.63;;;11.20;;
5343;SDS011;2694;48.950;8.970;2022-08-19T00:17:11;17.25;;;10.77;;
5343;SDS011;2694;48.950;8.970;2022-08-19T00:19:38;17.42;;;11.05;;
5343;SDS011;2694;48.950;8.970;2022-08-19T00:22:06;18.00;;;10.63;;
5343;SDS011;2694;48.950;8.970;2022-08-19T00:24:34;18.63;;;11.80;;
5343;SDS011;2694;48.950;8.970;2022-08-19T00:27:03;19.02;;;11.02;;
5343;SDS011;2694;48.950;8.970;2022-08-19T00:29:30;17.58;;;11.18;;
5343;SDS011;2694;48.950;8.970;2022-08-19T00:31:57;17.00;;;10.88;;
5343;SDS011;2694;48.950;8.970;2022-08-19T00:34:26;17.15;;;10.75;;
5343;SDS011;2694;48.950;8.970;2022-08-19T00:36:53;16.80;;;10.30;;
5343;SDS011;2694;48.950;8.970;2022-08-19T00:39:21;18.47;;;10.60;;
5343;SDS011;2694;48.950;8.970;2022-08-19T00:41:48;19.35;;;11.30;;
5343;SDS011;2694;48.950;8.970;2022-08-19T00:44:17;16.50;;;10.55;;
5343;SDS011;2694;48.950;8.970;2022-08-19T00:46:46;16.83;;;11.07;;
5343;SDS011;2694;48.950;8.970;2022-08-19T00:49:15;19.15;;;10.65;;
5343;SDS011;2694;48.950;8.970;2022-08-19T00:51:48;20.85;;;11.02;;
5343;SDS011;2694;48.950;8.970;2022-08-19T00:54:18;20.40;;;11.67;;
5343;SDS011;2694;48.950;8.970;2022-08-19T00:56:47;18.70;;;10.57;;
5343;SDS011;2694;48.950;8.970;2022-08-19T00:59:15;18.10;;;10.60;;
5343;SDS011;2694;48.950;8.970;2022-08-19T01:01:44;17.75;;;11.23;;
5343;SDS011;2694;48.950;8.970;2022-08-19T01:04:11;19.08;;;12.23;;
5343;SDS011;2694;48.950;8.970;2022-08-19T01:06:39;17.50;;;11.20;;
5343;SDS011;2694;48.950;8.970;2022-08-19T01:09:08;19.27;;;11.80;;
5343;SDS011;2694;48.950;8.970;2022-08-19T01:11:36;22.43;;;12.17;;
5343;SDS011;2694;48.950;8.970;2022-08-19T01:14:08;15.95;;;11.00;;
5343;SDS011;2694;48.950;8.970;2022-08-19T01:16:35;19.42;;;11.20;;
5343;SDS011;2694;48.950;8.970;2022-08-19T01:19:06;19.90;;;12.70;;
5343;SDS011;2694;48.950;8.970;2022-08-19T01:21:39;18.40;;;12.13;;
5343;SDS011;2694;48.950;8.970;2022-08-19T01:24:14;20.05;;;12.50;;
5343;SDS011;2694;48.950;8.970;2022-08-19T01:26:42;25.33;;;12.20;;
5343;SDS011;2694;48.950;8.970;2022-08-19T01:29:10;20.63;;;12.03;;
5343;SDS011;2694;48.950;8.970;2022-08-19T01:31:37;20.33;;;12.75;;
5343;SDS011;2694;48.950;8.970;2022-08-19T01:34:05;19.05;;;12.68;;
5343;SDS011;2694;48.950;8.970;2022-08-19T01:36:34;21.10;;;12.38;;
5343;SDS011;2694;48.950;8.970;2022-08-19T01:39:12;19.30;;;12.30;;
5343;SDS011;2694;48.950;8.970;2022-08-19T01:41:43;19.77;;;12.75;;
5343;SDS011;2694;48.950;8.970;2022-08-19T01:44:09;19.98;;;12.65;;
5343;SDS011;2694;48.950;8.970;2022-08-19T01:46:37;19.27;;;11.73;;
5343;SDS011;2694;48.950;8.970;2022-08-19T01:49:04;22.13;;;12.73;;
5343;SDS011;2694;48.950;8.970;2022-08-19T01:51:32;22.43;;;12.00;;
5343;SDS011;2694;48.950;8.970;2022-08-19T01:54:00;21.70;;;12.95;;
5343;SDS011;2694;48.950;8.970;2022-08-19T01:56:28;18.65;;;11.75;;
5343;SDS011;2694;48.950;8.970;2022-08-19T01:58:56;22.03;;;12.43;;
5343;SDS011;2694;48.950;8.970;2022-08-19T02:01:25;21.92;;;12.93;;
5343;SDS011;2694;48.950;8.970;2022-08-19T02:03:52;23.38;;;13.30;;
5343;SDS011;2694;48.950;8.970;2022-08-19T02:06:19;20.05;;;13.02;;
5343;SDS011;2694;48.950;8.970;2022-08-19T02:08:46;19.17;;;12.80;;
5343;SDS011;2694;48.950;8.970;2022-08-19T02:11:18;24.50;;;13.50;;
5343;SDS011;2694;48.950;8.970;2022-08-19T02:13:47;26.13;;;14.27;;
5343;SDS011;2694;48.950;8.970;2022-08-19T02:16:15;21.73;;;13.52;;
5343;SDS011;2694;48.950;8.970;2022-08-19T02:18:43;23.55;;;14.48;;
5343;SDS011;2694;48.950;8.970;2022-08-19T02:21:10;22.98;;;15.55;;
5343;SDS011;2694;48.950;8.970;2022-08-19T02:23:37;23.42;;;14.57;;
5343;SDS011;2694;48.950;8.970;2022-08-19T02:26:04;24.67;;;15.77;;
5343;SDS011;2694;48.950;8.970;2022-08-19T02:28:31;24.73;;;14.55;;
5343;SDS011;2694;48.950;8.970;2022-08-19T02:31:00;25.95;;;14.80;;
5343;SDS011;2694;48.950;8.970;2022-08-19T02:33:27;22.25;;;14.90;;
5343;SDS011;2694;48.950;8.970;2022-08-19T02:35:54;23.57;;;15.20;;
5343;SDS011;2694;48.950;8.970;2022-08-19T02:38:21;25.20;;;15.33;;
5343;SDS011;2694;48.950;8.970;2022-08-19T02:40:54;24.67;;;14.40;;
5343;SDS011;2694;48.950;8.970;2022-08-19T02:43:23;26.73;;;15.73;;
5343;SDS011;2694;48.950;8.970;2022-08-19T02:45:51;22.95;;;15.20;;
5343;SDS011;2694;48.950;8.970;2022-08-19T02:48:19;24.00;;;14.55;;
5343;SDS011;2694;48.950;8.970;2022-08-19T02:50:49;25.20;;;16.00;;
5343;SDS011;2694;48.950;8.970;2022-08-19T02:53:20;24.55;;;14.50;;
5343;SDS011;2694;48.950;8.970;2022-08-19T02:55:48;28.80;;;16.15;;
5343;SDS011;2694;48.950;8.970;2022-08-19T02:58:16;24.80;;;15.15;;
5343;SDS011;2694;48.950;8.970;2022-08-19T03:00:43;24.20;;;16.10;;
5343;SDS011;2694;48.950;8.970;2022-08-19T03:03:11;28.55;;;16.80;;
5343;SDS011;2694;48.950;8.970;2022-08-19T03:05:40;26.27;;;16.77;;
5343;SDS011;2694;48.950;8.970;2022-08-19T03:08:07;25.95;;;16.10;;
5343;SDS011;2694;48.950;8.970;2022-08-19T03:10:39;25.88;;;16.58;;
5343;SDS011;2694;48.950;8.970;2022-08-19T03:13:09;25.23;;;15.40;;
5343;SDS011;2694;48.950;8.970;2022-08-19T03:15:38;24.33;;;15.98;;
5343;SDS011;2694;48.950;8.970;2022-08-19T03:18:06;27.38;;;15.30;;
5343;SDS011;2694;48.950;8.970;2022-08-19T03:20:33;28.73;;;15.85;;
5343;SDS011;2694;48.950;8.970;2022-08-19T03:23:01;26.50;;;15.57;;
5343;SDS011;2694;48.950;8.970;2022-08-19T03:25:28;24.83;;;15.80;;
5343;SDS011;2694;48.950;8.970;2022-08-19T03:27:55;27.67;;;16.30;;
5343;SDS011;2694;48.950;8.970;2022-08-19T03:30:22;25.13;;;16.50;;
5343;SDS011;2694;48.950;8.970;2022-08-19T03:32:52;25.42;;;15.60;;
5343;SDS011;2694;48.950;8.970;2022-08-19T03:35:18;24.98;;;16.10;;
5343;SDS011;2694;48.950;8.970;2022-08-19T03:37:46;25.77;;;16.95;;
5343;SDS011;2694;48.950;8.970;2022-08-19T03:40:14;24.27;;;15.93;;
5343;SDS011;2694;48.950;8.970;2022-08-19T03:42:41;24.30;;;15.43;;
5343;SDS011;2694;48.950;8.970;2022-08-19T03:45:08;23.17;;;15.07;;
5343;SDS011;2694;48.950;8.970;2022-08-19T03:47:35;23.20;;;15.50;;
5343;SDS011;2694;48.950;8.970;2022-08-19T03:50:03;23.75;;;15.80;;
5343;SDS011;2694;48.950;8.970;2022-08-19T03:52:31;25.40;;;16.60;;
5343;SDS011;2694;48.950;8.970;2022-08-19T03:54:58;25.80;;;16.10;;
5343;SDS011;2694;48.950;8.970;2022-08-19T03:57:26;26.93;;;16.40;;
5343;SDS011;2694;48.950;8.970;2022-08-19T03:59:53;27.55;;;17.42;;
5343;SDS011;2694;48.950;8.970;2022-08-19T04:02:20;28.38;;;17.45;;
5343;SDS011;2694;48.950;8.970;2022-08-19T04:04:47;25.45;;;16.75;;
5343;SDS011;2694;48.950;8.970;2022-08-19T04:07:14;29.77;;;17.50;;
5343;SDS011;2694;48.950;8.970;2022-08-19T04:09:43;24.88;;;16.70;;
5343;SDS011;2694;48.950;8.970;2022-08-19T04:12:09;30.60;;;18.63;;
5343;SDS011;2694;48.950;8.970;2022-08-19T04:14:40;29.42;;;18.77;;
5343;SDS011;2694;48.950;8.970;2022-08-19T04:17:07;24.37;;;17.37;;
5343;SDS011;2694;48.950;8.970;2022-08-19T04:19:34;23.88;;;17.05;;
5343;SDS011;2694;48.950;8.970;2022-08-19T04:22:02;25.25;;;17.02;;
5343;SDS011;2694;48.950;8.970;2022-08-19T04:24:30;25.90;;;16.50;;
5343;SDS011;2694;48.950;8.970;2022-08-19T04:26:58;23.98;;;16.70;;
5343;SDS011;2694;48.950;8.970;2022-08-19T04:29:25;26.92;;;17.42;;
5343;SDS011;2694;48.950;8.970;2022-08-19T04:31:54;27.80;;;17.90;;
5343;SDS011;2694;48.950;8.970;2022-08-19T04:34:22;30.75;;;17.73;;
5343;SDS011;2694;48.950;8.970;2022-08-19T04:36:50;30.48;;;18.38;;
5343;SDS011;2694;48.950;8.970;2022-08-19T04:39:19;27.88;;;17.20;;
5343;SDS011;2694;48.950;8.970;2022-08-19T04:41:47;29.42;;;17.52;;
5343;SDS011;2694;48.950;8.970;2022-08-19T04:44:32;27.75;;;17.52;;
5343;SDS011;2694;48.950;8.970;2022-08-19T04:47:02;29.65;;;18.40;;
5343;SDS011;2694;48.950;8.970;2022-08-19T04:49:31;28.17;;;17.70;;
5343;SDS011;2694;48.950;8.970;2022-08-19T04:51:57;26.10;;;18.27;;
5343;SDS011;2694;48.950;8.970;2022-08-19T04:54:25;25.70;;;17.57;;
5343;SDS011;2694;48.950;8.970;2022-08-19T04:56:53;28.98;;;18.40;;
5343;SDS011;2694;48.950;8.970;2022-08-19T04:59:20;26.58;;;16.92;;
5343;SDS011;2694;48.950;8.970;2022-08-19T05:01:47;25.23;;;17.15;;
5343;SDS011;2694;48.950;8.970;2022-08-19T05:04:17;25.93;;;16.80;;
5343;SDS011;2694;48.950;8.970;2022-08-19T05:06:45;32.00;;;18.65;;
5343;SDS011;2694;48.950;8.970;2022-08-19T05:09:12;28.15;;;18.38;;
5343;SDS011;2694;48.950;8.970;2022-08-19T05:11:40;27.65;;;17.70;;
5343;SDS011;2694;48.950;8.970;2022-08-19T05:14:07;26.13;;;17.25;;
5343;SDS011;2694;48.950;8.970;2022-08-19T05:16:37;29.88;;;18.55;;
5343;SDS011;2694;48.950;8.970;2022-08-19T05:19:04;26.48;;;17.27;;
5343;SDS011;2694;48.950;8.970;2022-08-19T05:21:50;27.97;;;18.37;;
5343;SDS011;2694;48.950;8.970;2022-08-19T05:24:35;27.75;;;18.95;;
5343;SDS011;2694;48.950;8.970;2022-08-19T05:27:02;29.58;;;18.05;;
5343;SDS011;2694;48.950;8.970;2022-08-19T05:29:30;36.90;;;19.20;;
5343;SDS011;2694;48.950;8.970;2022-08-19T05:31:59;29.42;;;18.10;;
5343;SDS011;2694;48.950;8.970;2022-08-19T05:34:27;26.50;;;17.70;;
5343;SDS011;2694;48.950;8.970;2022-08-19T05:36:55;25.83;;;16.83;;
5343;SDS011;2694;48.950;8.970;2022-08-19T05:39:25;27.10;;;18.33;;
5343;SDS011;2694;48.950;8.970;2022-08-19T05:41:54;26.23;;;17.40;;
5343;SDS011;2694;48.950;8.970;2022-08-19T05:44:23;23.90;;;16.67;;
5343;SDS011;2694;48.950;8.970;2022-08-19T05:46:50;28.80;;;18.00;;
5343;SDS011;2694;48.950;8.970;2022-08-19T05:49:19;34.65;;;18.45;;
5343;SDS011;2694;48.950;8.970;2022-08-19T05:51:47;26.88;;;17.73;;
5343;SDS011;2694;48.950;8.970;2022-08-19T05:54:16;29.23;;;18.42;;
5343;SDS011;2694;48.950;8.970;2022-08-19T05:56:44;33.45;;;19.20;;
5343;SDS011;2694;48.950;8.970;2022-08-19T05:59:13;24.58;;;16.25;;
5343;SDS011;2694;48.950;8.970;2022-08-19T06:01:42;27.00;;;18.48;;
5343;SDS011;2694;48.950;8.970;2022-08-19T06:04:11;28.33;;;18.40;;
5343;SDS011;2694;48.950;8.970;2022-08-19T06:06:39;27.10;;;17.35;;
5343;SDS011;2694;48.950;8.970;2022-08-19T06:09:07;25.20;;;17.30;;
5343;SDS011;2694;48.950;8.970;2022-08-19T06:11:36;27.58;;;17.75;;
5343;SDS011;2694;48.950;8.970;2022-08-19T06:14:05;26.50;;;16.65;;
5343;SDS011;2694;48.950;8.970;2022-08-19T06:16:33;25.35;;;17.38;;
5343;SDS011;2694;48.950;8.970;2022-08-19T06:19:01;24.73;;;17.58;;
5343;SDS011;2694;48.950;8.970;2022-08-19T06:21:32;29.90;;;17.92;;
5343;SDS011;2694;48.950;8.970;2022-08-19T06:23:59;27.92;;;17.80;;
5343;SDS011;2694;48.950;8.970;2022-08-19T06:26:27;24.07;;;16.73;;
5343;SDS011;2694;48.950;8.970;2022-08-19T06:28:55;26.40;;;17.20;;
5343;SDS011;2694;48.950;8.970;2022-08-19T06:31:23;27.45;;;17.33;;
5343;SDS011;2694;48.950;8.970;2022-08-19T06:33:51;27.52;;;17.58;;
5343;SDS011;2694;48.950;8.970;2022-08-19T06:36:19;29.42;;;16.35;;
5343;SDS011;2694;48.950;8.970;2022-08-19T06:38:52;24.83;;;17.23;;
5343;SDS011;2694;48.950;8.970;2022-08-19T06:41:19;24.73;;;16.80;;
5343;SDS011;2694;48.950;8.970;2022-08-19T06:43:46;27.05;;;16.30;;
5343;SDS011;2694;48.950;8.970;2022-08-19T06:46:16;24.75;;;16.45;;
5343;SDS011;2694;48.950;8.970;2022-08-19T06:48:45;25.55;;;16.85;;
5343;SDS011;2694;48.950;8.970;2022-08-19T06:51:12;22.25;;;15.10;;
5343;SDS011;2694;48.950;8.970;2022-08-19T06:53:43;24.42;;;15.77;;
5343;SDS011;2694;48.950;8.970;2022-08-19T06:56:11;25.87;;;16.60;;
5343;SDS011;2694;48.950;8.970;2022-08-19T06:58:38;24.23;;;16.58;;
5343;SDS011;2694;48.950;8.970;2022-08-19T07:01:05;23.55;;;14.98;;
5343;SDS011;2694;48.950;8.970;2022-08-19T07:03:34;25.73;;;15.40;;
5343;SDS011;2694;48.950;8.970;2022-08-19T07:06:03;22.43;;;14.90;;
5343;SDS011;2694;48.950;8.970;2022-08-19T07:08:31;24.27;;;16.15;;
5343;SDS011;2694;48.950;8.970;2022-08-19T07:10:59;26.60;;;15.88;;
5343;SDS011;2694;48.950;8.970;2022-08-19T07:13:26;26.20;;;15.63;;
5343;SDS011;2694;48.950;8.970;2022-08-19T07:15:52;25.40;;;15.55;;
5343;SDS011;2694;48.950;8.970;2022-08-19T07:18:19;24.35;;;16.30;;
5343;SDS011;2694;48.950;8.970;2022-08-19T07:20:48;22.48;;;15.43;;
5343;SDS011;2694;48.950;8.970;2022-08-19T07:23:15;25.95;;;16.00;;
5343;SDS011;2694;48.950;8.970;2022-08-19T07:25:44;24.90;;;15.88;;
5343;SDS011;2694;48.950;8.970;2022-08-19T07:28:11;25.10;;;16.25;;
5343;SDS011;2694;48.950;8.970;2022-08-19T07:30:38;23.95;;;15.15;;
5343;SDS011;2694;48.950;8.970;2022-08-19T07:33:05;24.92;;;14.95;;
5343;SDS011;2694;48.950;8.970;2022-08-19T07:35:32;20.98;;;14.60;;
5343;SDS011;2694;48.950;8.970;2022-08-19T07:38:01;21.27;;;14.65;;
5343;SDS011;2694;48.950;8.970;2022-08-19T07:40:31;23.90;;;15.18;;
5343;SDS011;2694;48.950;8.970;2022-08-19T07:42:57;20.83;;;13.80;;
5343;SDS011;2694;48.950;8.970;2022-08-19T07:45:26;20.93;;;13.70;;
5343;SDS011;2694;48.950;8.970;2022-08-19T07:47:53;21.60;;;14.00;;
5343;SDS011;2694;48.950;8.970;2022-08-19T07:50:21;21.25;;;14.32;;
5343;SDS011;2694;48.950;8.970;2022-08-19T07:52:48;19.63;;;13.77;;
5343;SDS011;2694;48.950;8.970;2022-08-19T07:55:17;22.10;;;13.68;;
5343;SDS011;2694;48.950;8.970;2022-08-19T07:57:46;22.55;;;14.52;;
5343;SDS011;2694;48.950;8.970;2022-08-19T08:00:14;21.33;;;14.05;;
5343;SDS011;2694;48.950;8.970;2022-08-19T08:02:41;18.80;;;14.73;;
5343;SDS011;2694;48.950;8.970;2022-08-19T08:05:08;21.20;;;14.13;;
5343;SDS011;2694;48.950;8.970;2022-08-19T08:07:53;21.20;;;13.85;;
5343;SDS011;2694;48.950;8.970;2022-08-19T08:10:39;19.27;;;12.48;;
5343;SDS011;2694;48.950;8.970;2022-08-19T08:13:07;21.35;;;12.80;;
5343;SDS011;2694;48.950;8.970;2022-08-19T08:15:34;21.10;;;14.40;;
5343;SDS011;2694;48.950;8.970;2022-08-19T08:18:02;21.43;;;12.53;;
5343;SDS011;2694;48.950;8.970;2022-08-19T08:20:29;20.27;;;13.48;;
5343;SDS011;2694;48.950;8.970;2022-08-19T08:22:56;21.20;;;12.75;;
5343;SDS011;2694;48.950;8.970;2022-08-19T08:25:42;21.10;;;12.30;;
5343;SDS011;2694;48.950;8.970;2022-08-19T08:28:09;24.30;;;12.57;;
5343;SDS011;2694;48.950;8.970;2022-08-19T08:30:36;19.65;;;12.70;;
5343;SDS011;2694;48.950;8.970;2022-08-19T08:33:06;20.77;;;13.50;;
5343;SDS011;2694;48.950;8.970;2022-08-19T08:35:33;18.43;;;12.67;;
5343;SDS011;2694;48.950;8.970;2022-08-19T08:38:00;20.42;;;12.20;;
5343;SDS011;2694;48.950;8.970;2022-08-19T08:40:29;17.38;;;12.20;;
5343;SDS011;2694;48.950;8.970;2022-08-19T08:42:59;19.15;;;11.98;;
5343;SDS011;2694;48.950;8.970;2022-08-19T08:45:33;18.95;;;11.43;;
5343;SDS011;2694;48.950;8.970;2022-08-19T08:48:02;20.47;;;12.23;;
5343;SDS011;2694;48.950;8.970;2022-08-19T08:50:41;16.67;;;11.63;;
5343;SDS011;2694;48.950;8.970;2022-08-19T08:53:09;18.67;;;12.30;;
5343;SDS011;2694;48.950;8.970;2022-08-19T08:55:37;17.70;;;11.50;;
5343;SDS011;2694;48.950;8.970;2022-08-19T08:58:09;24.75;;;12.30;;
5343;SDS011;2694;48.950;8.970;2022-08-19T09:00:43;16.63;;;10.68;;
5343;SDS011;2694;48.950;8.970;2022-08-19T09:03:17;19.20;;;10.23;;
5343;SDS011;2694;48.950;8.970;2022-08-19T09:05:48;18.10;;;10.80;;
5343;SDS011;2694;48.950;8.970;2022-08-19T09:08:26;18.15;;;11.32;;
5343;SDS011;2694;48.950;8.970;2022-08-19T09:10:55;18.70;;;10.75;;
5343;SDS011;2694;48.950;8.970;2022-08-19T09:13:26;18.20;;;10.68;;
5343;SDS011;2694;48.950;8.970;2022-08-19T09:15:58;19.00;;;9.90;;
5343;SDS011;2694;48.950;8.970;2022-08-19T09:18:38;14.13;;;9.45;;
5343;SDS011;2694;48.950;8.970;2022-08-19T09:21:07;22.15;;;9.35;;
5343;SDS011;2694;48.950;8.970;2022-08-19T09:23:34;13.83;;;9.70;;
5343;SDS011;2694;48.950;8.970;2022-08-19T09:26:01;14.40;;;9.83;;
5343;SDS011;2694;48.950;8.970;2022-08-19T09:28:33;17.45;;;9.65;;
5343;SDS011;2694;48.950;8.970;2022-08-19T09:31:02;13.93;;;9.20;;
5343;SDS011;2694;48.950;8.970;2022-08-19T09:33:29;16.90;;;9.55;;
5343;SDS011;2694;48.950;8.970;2022-08-19T09:36:01;15.45;;;9.50;;
5343;SDS011;2694;48.950;8.970;2022-08-19T09:38:29;18.65;;;9.77;;
5343;SDS011;2694;48.950;8.970;2022-08-19T09:41:01;14.10;;;9.25;;
5343;SDS011;2694;48.950;8.970;2022-08-19T09:43:29;14.25;;;9.50;;
5343;SDS011;2694;48.950;8.970;2022-08-19T09:45:58;14.18;;;8.50;;
5343;SDS011;2694;48.950;8.970;2022-08-19T09:48:25;18.38;;;9.60;;
5343;SDS011;2694;48.950;8.970;2022-08-19T09:50:52;19.10;;;9.60;;
5343;SDS011;2694;48.950;8.970;2022-08-19T09:53:19;14.38;;;8.57;;
5343;SDS011;2694;48.950;8.970;2022-08-19T09:55:48;14.33;;;9.00;;
5343;SDS011;2694;48.950;8.970;2022-08-19T09:58:15;14.48;;;8.25;;
5343;SDS011;2694;48.950;8.970;2022-08-19T10:00:42;15.23;;;10.00;;
5343;SDS011;2694;48.950;8.970;2022-08-19T10:03:10;11.23;;;8.10;;
5343;SDS011;2694;48.950;8.970;2022-08-19T10:05:37;13.10;;;8.50;;
5343;SDS011;2694;48.950;8.970;2022-08-19T10:08:17;17.42;;;8.55;;
5343;SDS011;2694;48.950;8.970;2022-08-19T10:10:46;12.65;;;8.38;;
5343;SDS011;2694;48.950;8.970;2022-08-19T10:13:14;14.85;;;8.23;;
5343;SDS011;2694;48.950;8.970;2022-08-19T10:15:43;14.32;;;8.40;;
5343;SDS011;2694;48.950;8.970;2022-08-19T10:18:12;12.65;;;7.65;;
5343;SDS011;2694;48.950;8.970;2022-08-19T10:20:38;12.82;;;8.10;;
5343;SDS011;2694;48.950;8.970;2022-08-19T10:23:06;10.77;;;7.75;;
5343;SDS011;2694;48.950;8.970;2022-08-19T10:25:33;12.63;;;8.25;;
5343;SDS011;2694;48.950;8.970;2022-08-19T10:28:06;12.50;;;7.50;;
5343;SDS011;2694;48.950;8.970;2022-08-19T10:30:42;10.40;;;7.35;;
5343;SDS011;2694;48.950;8.970;2022-08-19T10:33:09;13.57;;;7.45;;
5343;SDS011;2694;48.950;8.970;2022-08-19T10:35:37;9.20;;;6.40;;
5343;SDS011;2694;48.950;8.970;2022-08-19T10:38:04;11.93;;;7.40;;
5343;SDS011;2694;48.950;8.970;2022-08-19T10:40:31;10.15;;;6.53;;
5343;SDS011;2694;48.950;8.970;2022-08-19T10:42:58;11.63;;;7.80;;
5343;SDS011;2694;48.950;8.970;2022-08-19T10:45:24;11.82;;;7.18;;
5343;SDS011;2694;48.950;8.970;2022-08-19T10:47:52;15.25;;;6.90;;
5343;SDS011;2694;48.950;8.970;2022-08-19T10:50:19;9.63;;;6.03;;
5343;SDS011;2694;48.950;8.970;2022-08-19T10:53:05;10.40;;;6.50;;
5343;SDS011;2694;48.950;8.970;2022-08-19T10:55:34;13.05;;;6.63;;
5343;SDS011;2694;48.950;8.970;2022-08-19T10:58:19;10.15;;;6.00;;
5343;SDS011;2694;48.950;8.970;2022-08-19T11:00:53;8.98;;;5.22;;
5343;SDS011;2694;48.950;8.970;2022-08-19T11:03:21;11.90;;;5.60;;
5343;SDS011;2694;48.950;8.970;2022-08-19T11:05:56;8.88;;;5.50;;
5343;SDS011;2694;48.950;8.970;2022-08-19T11:08:25;6.97;;;4.60;;
5343;SDS011;2694;48.950;8.970;2022-08-19T11:10:52;7.90;;;4.82;;
5343;SDS011;2694;48.950;8.970;2022-08-19T11:13:21;6.10;;;4.40;;
5343;SDS011;2694;48.950;8.970;2022-08-19T11:15:55;6.07;;;4.40;;
5343;SDS011;2694;48.950;8.970;2022-08-19T11:18:23;8.20;;;4.70;;
5343;SDS011;2694;48.950;8.970;2022-08-19T11:20:51;8.35;;;4.93;;
5343;SDS011;2694;48.950;8.970;2022-08-19T11:23:18;6.70;;;4.30;;
5343;SDS011;2694;48.950;8.970;2022-08-19T11:25:46;7.85;;;4.70;;
5343;SDS011;2694;48.950;8.970;2022-08-19T11:28:13;9.55;;;4.80;;
5343;SDS011;2694;48.950;8.970;2022-08-19T11:30:39;6.40;;;4.30;;
5343;SDS011;2694;48.950;8.970;2022-08-19T11:33:06;7.73;;;4.83;;
5343;SDS011;2694;48.950;8.970;2022-08-19T11:35:38;16.05;;;5.28;;
5343;SDS011;2694;48.950;8.970;2022-08-19T11:38:06;7.13;;;4.78;;
5343;SDS011;2694;48.950;8.970;2022-08-19T11:40:33;7.30;;;4.78;;
5343;SDS011;2694;48.950;8.970;2022-08-19T11:43:01;5.40;;;4.60;;
5343;SDS011;2694;48.950;8.970;2022-08-19T11:45:28;8.43;;;4.80;;
5343;SDS011;2694;48.950;8.970;2022-08-19T11:47:56;8.27;;;4.93;;
5343;SDS011;2694;48.950;8.970;2022-08-19T11:50:23;7.38;;;4.75;;
5343;SDS011;2694;48.950;8.970;2022-08-19T11:52:50;5.97;;;4.18;;
5343;SDS011;2694;48.950;8.970;2022-08-19T11:55:20;5.55;;;4.50;;
5343;SDS011;2694;48.950;8.970;2022-08-19T11:57:47;6.77;;;3.70;;
5343;SDS011;2694;48.950;8.970;2022-08-19T12:00:15;4.00;;;3.20;;
5343;SDS011;2694;48.950;8.970;2022-08-19T12:02:42;5.50;;;3.42;;
5343;SDS011;2694;48.950;8.970;2022-08-19T12:05:09;5.20;;;3.30;;
5343;SDS011;2694;48.950;8.970;2022-08-19T12:07:36;4.83;;;3.47;;
5343;SDS011;2694;48.950;8.970;2022-08-19T12:10:03;4.88;;;3.72;;
5343;SDS011;2694;48.950;8.970;2022-08-19T12:12:30;7.60;;;3.70;;
5343;SDS011;2694;48.950;8.970;2022-08-19T12:14:57;7.93;;;3.70;;
5343;SDS011;2694;48.950;8.970;2022-08-19T12:17:25;5.50;;;3.93;;
5343;SDS011;2694;48.950;8.970;2022-08-19T12:19:53;6.90;;;4.50;;
5343;SDS011;2694;48.950;8.970;2022-08-19T12:22:20;8.85;;;4.20;;
5343;SDS011;2694;48.950;8.970;2022-08-19T12:24:47;7.93;;;4.70;;
5343;SDS011;2694;48.950;8.970;2022-08-19T12:27:16;6.90;;;4.63;;
5343;SDS011;2694;48.950;8.970;2022-08-19T12:29:42;6.57;;;4.65;;
5343;SDS011;2694;48.950;8.970;2022-08-19T12:32:09;5.15;;;3.97;;
5343;SDS011;2694;48.950;8.970;2022-08-19T12:34:38;4.70;;;3.92;;
5343;SDS011;2694;48.950;8.970;2022-08-19T12:37:05;6.25;;;4.00;;
5343;SDS011;2694;48.950;8.970;2022-08-19T12:39:37;4.80;;;3.65;;
5343;SDS011;2694;48.950;8.970;2022-08-19T12:42:04;10.35;;;4.28;;
5343;SDS011;2694;48.950;8.970;2022-08-19T12:44:33;6.50;;;3.80;;
5343;SDS011;2694;48.950;8.970;2022-08-19T12:47:00;7.70;;;3.95;;
5343;SDS011;2694;48.950;8.970;2022-08-19T12:49:29;6.47;;;4.00;;
5343;SDS011;2694;48.950;8.970;2022-08-19T12:51:59;5.50;;;4.40;;
5343;SDS011;2694;48.950;8.970;2022-08-19T12:54:26;5.70;;;4.10;;
5343;SDS011;2694;48.950;8.970;2022-08-19T12:56:55;7.43;;;4.90;;
5343;SDS011;2694;48.950;8.970;2022-08-19T12:59:22;7.88;;;5.10;;
5343;SDS011;2694;48.950;8.970;2022-08-19T13:01:49;10.55;;;5.30;;
5343;SDS011;2694;48.950;8.970;2022-08-19T13:04:16;8.00;;;4.20;;
5343;SDS011;2694;48.950;8.970;2022-08-19T13:06:44;6.73;;;4.67;;
5343;SDS011;2694;48.950;8.970;2022-08-19T13:09:12;6.00;;;4.23;;
5343;SDS011;2694;48.950;8.970;2022-08-19T13:11:39;7.50;;;4.60;;
5343;SDS011;2694;48.950;8.970;2022-08-19T13:14:08;7.70;;;5.15;;
5343;SDS011;2694;48.950;8.970;2022-08-19T13:16:36;8.90;;;5.50;;
5343;SDS011;2694;48.950;8.970;2022-08-19T13:19:03;7.30;;;4.72;;
5343;SDS011;2694;48.950;8.970;2022-08-19T13:21:30;6.95;;;4.78;;
5343;SDS011;2694;48.950;8.970;2022-08-19T13:23:57;7.75;;;4.93;;
5343;SDS011;2694;48.950;8.970;2022-08-19T13:26:25;11.10;;;4.70;;
5343;SDS011;2694;48.950;8.970;2022-08-19T13:28:52;6.57;;;4.80;;
5343;SDS011;2694;48.950;8.970;2022-08-19T13:31:45;7.47;;;4.60;;
5343;SDS011;2694;48.950;8.970;2022-08-19T13:34:31;8.02;;;4.90;;
5343;SDS011;2694;48.950;8.970;2022-08-19T13:37:01;8.43;;;5.20;;
5343;SDS011;2694;48.950;8.970;2022-08-19T13:39:29;5.57;;;4.40;;
5343;SDS011;2694;48.950;8.970;2022-08-19T13:41:58;6.20;;;5.00;;
5343;SDS011;2694;48.950;8.970;2022-08-19T13:44:26;6.75;;;5.00;;
5343;SDS011;2694;48.950;8.970;2022-08-19T13:46:55;7.05;;;5.10;;
5343;SDS011;2694;48.950;8.970;2022-08-19T13:49:27;6.10;;;4.40;;
5343;SDS011;2694;48.950;8.970;2022-08-19T13:51:55;6.50;;;4.40;;
5343;SDS011;2694;48.950;8.970;2022-08-19T13:54:22;8.20;;;4.70;;
5343;SDS011;2694;48.950;8.970;2022-08-19T13:56:49;4.80;;;4.10;;
5343;SDS011;2694;48.950;8.970;2022-08-19T13:59:18;5.47;;;4.10;;
5343;SDS011;2694;48.950;8.970;2022-08-19T14:01:44;5.40;;;4.00;;
5343;SDS011;2694;48.950;8.970;2022-08-19T14:04:11;5.70;;;4.50;;
5343;SDS011;2694;48.950;8.970;2022-08-19T14:06:38;5.35;;;4.00;;
5343;SDS011;2694;48.950;8.970;2022-08-19T14:09:05;5.43;;;4.30;;
5343;SDS011;2694;48.950;8.970;2022-08-19T14:11:32;6.82;;;4.63;;
5343;SDS011;2694;48.950;8.970;2022-08-19T14:13:59;5.50;;;3.90;;
5343;SDS011;2694;48.950;8.970;2022-08-19T14:16:27;5.90;;;3.90;;
5343;SDS011;2694;48.950;8.970;2022-08-19T14:18:55;6.97;;;4.53;;
5343;SDS011;2694;48.950;8.970;2022-08-19T14:21:23;4.70;;;4.13;;
5343;SDS011;2694;48.950;8.970;2022-08-19T14:23:51;6.05;;;3.80;;
5343;SDS011;2694;48.950;8.970;2022-08-19T14:26:18;6.13;;;4.00;;
5343;SDS011;2694;48.950;8.970;2022-08-19T14:28:46;5.55;;;4.35;;
5343;SDS011;2694;48.950;8.970;2022-08-19T14:31:15;4.77;;;3.53;;
5343;SDS011;2694;48.950;8.970;2022-08-19T14:33:46;5.13;;;3.88;;
5343;SDS011;2694;48.950;8.970;2022-08-19T14:36:13;4.53;;;4.00;;
5343;SDS011;2694;48.950;8.970;2022-08-19T14:38:40;5.00;;;3.90;;
5343;SDS011;2694;48.950;8.970;2022-08-19T14:41:08;6.00;;;3.50;;
5343;SDS011;2694;48.950;8.970;2022-08-19T14:43:38;4.82;;;3.70;;
5343;SDS011;2694;48.950;8.970;2022-08-19T14:46:05;4.55;;;3.03;;
5343;SDS011;2694;48.950;8.970;2022-08-19T14:48:33;5.10;;;3.50;;
5343;SDS011;2694;48.950;8.970;2022-08-19T14:51:02;3.80;;;3.00;;
5343;SDS011;2694;48.950;8.970;2022-08-19T14:53:29;4.55;;;3.50;;
5343;SDS011;2694;48.950;8.970;2022-08-19T14:55:58;4.17;;;3.37;;
5343;SDS011;2694;48.950;8.970;2022-08-19T14:58:25;7.57;;;3.40;;
5343;SDS011;2694;48.950;8.970;2022-08-19T15:00:53;3.78;;;3.13;;
5343;SDS011;2694;48.950;8.970;2022-08-19T15:03:19;5.68;;;3.25;;